createdAt,value
2023-04-05T00:04:09.123Z,9.06
2023-04-05T00:09:14.734Z,9.07
2023-04-05T00:14:19.965Z,9.16
2023-04-05T00:19:25.229Z,9.21
2023-04-05T00:24:30.772Z,9.39
2023-04-05T00:29:36.337Z,9.48
2023-04-05T00:34:41.747Z,9.57
2023-04-05T00:39:47.215Z,9.67
2023-04-05T00:44:53.003Z,9.76
2023-04-05T00:49:59.027Z,9.80
2023-04-05T00:55:05.431Z,9.94
2023-04-05T01:00:13.042Z,10.05
2023-04-05T01:05:50.944Z,10.19
2023-04-05T01:11:02.027Z,10.38
2023-04-05T01:16:07.618Z,10.57
2023-04-05T01:22:00.639Z,10.76
2023-04-05T01:27:23.829Z,10.92
2023-04-05T01:32:46.301Z,11.09
2023-04-05T01:37:57.797Z,11.26
2023-04-05T01:43:16.053Z,11.45
2023-04-05T01:48:21.305Z,11.57
2023-04-05T01:53:26.645Z,11.74
2023-04-05T01:58:33.300Z,11.91
2023-04-05T02:03:39.251Z,12.11
2023-04-05T02:08:47.155Z,12.28
2023-04-05T02:13:54.801Z,12.40
2023-04-05T02:19:01.073Z,12.56
2023-04-05T02:24:07.073Z,12.69
2023-04-05T02:29:13.417Z,12.89
2023-04-05T02:34:19.810Z,13.14
2023-04-05T02:39:25.808Z,13.36
2023-04-05T02:44:32.476Z,13.58
2023-04-05T02:49:38.370Z,13.81
2023-04-05T02:54:45.603Z,13.91
2023-04-05T02:59:54.577Z,14.10
2023-04-05T03:05:07.277Z,14.32
2023-04-05T03:10:15.190Z,14.47
2023-04-05T03:15:20.907Z,14.56
2023-04-05T03:20:26.957Z,14.71
2023-04-05T03:25:42.809Z,14.84
2023-04-05T03:30:49.825Z,15.01
2023-04-05T03:35:57.660Z,15.21
2023-04-05T03:41:04.780Z,15.40
2023-04-05T03:46:13.386Z,15.59
2023-04-05T03:51:20.277Z,15.71
2023-04-05T03:56:28.675Z,15.85
2023-04-05T04:01:40.339Z,15.97
2023-04-05T04:06:46.286Z,16.11
2023-04-05T04:11:55.095Z,16.32
2023-04-05T04:17:02.066Z,16.54
2023-04-05T04:22:11.392Z,16.66
2023-04-05T04:27:45.210Z,16.84
2023-04-05T04:32:59.270Z,16.91
2023-04-05T04:38:08.858Z,16.94
2023-04-05T04:43:28.492Z,17.02
2023-04-05T04:48:50.230Z,17.13
2023-04-05T04:54:07.727Z,17.33
2023-04-05T04:59:13.319Z,17.55
2023-04-05T05:04:19.043Z,17.62
2023-04-05T05:09:24.935Z,17.59
2023-04-05T05:14:35.679Z,17.58
2023-04-05T05:19:41.109Z,17.71
2023-04-05T05:24:47.906Z,17.77
2023-04-05T05:29:54.043Z,17.88
2023-04-05T05:34:59.709Z,17.95
2023-04-05T05:40:07.373Z,17.97
2023-04-05T05:45:13.108Z,18.08
2023-04-05T05:50:19.117Z,18.28
2023-04-05T05:55:24.631Z,18.45
2023-04-05T06:00:30.134Z,18.54
2023-04-05T06:05:37.235Z,18.53
2023-04-05T06:10:42.777Z,18.47
2023-04-05T06:15:50.176Z,18.60
2023-04-05T06:20:57.752Z,18.82
2023-04-05T06:26:03.422Z,19.07
2023-04-05T06:31:12.237Z,19.30
2023-04-05T06:36:17.261Z,19.51
2023-04-05T06:41:23.635Z,19.67
2023-04-05T06:46:29.343Z,19.68
2023-04-05T06:51:35.000Z,19.66
2023-04-05T06:56:43.334Z,19.47
2023-04-05T07:01:49.576Z,19.42
2023-04-05T07:06:56.306Z,19.38
2023-04-05T07:12:02.966Z,19.34
2023-04-05T07:17:10.669Z,19.28
2023-04-05T07:22:16.043Z,19.24
2023-04-05T07:27:24.380Z,19.59
2023-04-05T07:32:30.047Z,19.92
2023-04-05T07:37:38.664Z,20.20
2023-04-05T07:42:44.526Z,20.21
2023-04-05T07:47:49.876Z,19.94
2023-04-05T07:52:55.683Z,19.80
2023-04-05T07:58:01.119Z,19.89
2023-04-05T08:03:06.670Z,19.87
2023-04-05T08:08:12.546Z,19.59
2023-04-05T08:13:17.820Z,19.27
2023-04-05T08:18:24.835Z,19.03
2023-04-05T08:23:30.364Z,18.76
2023-04-05T08:28:36.589Z,18.51
2023-04-05T08:33:42.943Z,18.34
2023-04-05T08:38:49.139Z,18.09
2023-04-05T08:44:00.361Z,18.11
2023-04-05T08:49:09.735Z,18.07
2023-04-05T08:54:16.401Z,18.08
2023-04-05T08:59:22.785Z,18.01
2023-04-05T09:04:33.656Z,17.91
2023-04-05T09:09:41.449Z,17.82
2023-04-05T09:14:47.545Z,17.71
2023-04-05T09:19:52.882Z,17.62
2023-04-05T09:24:58.442Z,17.56
2023-04-05T09:30:06.941Z,17.47
2023-04-05T09:35:33.602Z,17.35
2023-04-05T09:40:50.224Z,17.26
2023-04-05T09:46:02.963Z,17.10
2023-04-05T09:56:17.753Z,16.83
2023-04-05T10:01:23.551Z,16.77
2023-04-05T10:06:47.012Z,16.66
2023-04-05T10:11:53.102Z,16.55
2023-04-05T10:17:13.971Z,16.42
2023-04-05T10:22:31.322Z,16.25
2023-04-05T10:27:47.319Z,16.14
2023-04-05T10:33:01.731Z,16.02
2023-04-05T10:38:17.400Z,15.89
2023-04-05T10:43:28.318Z,15.74
2023-04-05T10:49:06.854Z,15.63
2023-04-05T10:54:13.798Z,15.52
2023-04-05T10:59:21.213Z,15.41
2023-04-05T11:04:26.658Z,15.34
2023-04-05T11:09:33.109Z,15.26
2023-04-05T11:14:43.076Z,15.21
2023-04-05T11:19:48.495Z,15.14
2023-04-05T11:24:57.892Z,15.07
2023-04-05T11:30:05.199Z,15.02
2023-04-05T11:35:27.083Z,14.96
2023-04-05T11:40:33.606Z,14.88
2023-04-05T11:45:45.353Z,14.80
2023-04-05T11:50:56.061Z,14.70
2023-04-05T11:56:10.373Z,14.66
2023-04-05T12:01:16.273Z,14.59
2023-04-05T12:06:26.344Z,14.58
2023-04-05T12:11:35.322Z,14.58
2023-04-05T12:16:52.203Z,14.57
2023-04-05T12:21:58.021Z,14.53
2023-04-05T12:27:02.808Z,14.53
2023-04-05T12:32:08.684Z,14.48
2023-04-05T12:37:14.355Z,14.44
2023-04-05T12:42:20.544Z,14.41
2023-04-05T12:47:27.786Z,14.35
2023-04-05T12:52:33.583Z,14.29
2023-04-05T12:57:42.567Z,14.24
2023-04-05T13:02:53.053Z,14.18
2023-04-05T13:07:59.130Z,14.09
2023-04-05T13:13:05.652Z,14.04
2023-04-05T13:18:12.496Z,13.94
2023-04-05T13:23:18.222Z,13.95
2023-04-05T13:28:24.144Z,13.87
2023-04-05T13:33:30.401Z,13.82
2023-04-05T13:38:35.941Z,13.73
2023-04-05T13:43:42.923Z,13.67
2023-04-05T13:48:48.440Z,13.58
2023-04-05T13:53:53.924Z,13.50
2023-04-05T13:58:59.479Z,13.47
2023-04-05T14:04:06.984Z,13.48
2023-04-05T14:09:12.848Z,13.51
2023-04-05T14:14:19.446Z,13.54
2023-04-05T14:19:25.562Z,13.55
2023-04-05T14:24:31.189Z,13.54
2023-04-05T14:29:37.336Z,13.48
2023-04-05T14:34:42.969Z,13.48
2023-04-05T14:39:48.590Z,13.44
2023-04-05T14:44:54.263Z,13.34
2023-04-05T14:50:00.072Z,13.31
2023-04-05T14:55:06.587Z,13.30
2023-04-05T15:00:15.091Z,13.29
2023-04-05T15:05:21.347Z,13.24
2023-04-05T15:10:27.001Z,13.26
2023-04-05T15:15:32.908Z,13.22
2023-04-05T15:20:39.161Z,13.17
2023-04-05T15:25:44.638Z,13.16
2023-04-05T15:30:52.463Z,13.12
2023-04-05T15:35:57.929Z,13.06
2023-04-05T15:41:03.358Z,13.03
2023-04-05T15:46:08.828Z,13.02
2023-04-05T15:51:14.543Z,12.99
2023-04-05T15:56:20.233Z,12.93
2023-04-05T16:01:25.186Z,12.85
2023-04-05T16:06:31.584Z,12.79
2023-04-05T16:11:37.693Z,12.73
2023-04-05T16:16:53.078Z,12.66
2023-04-05T16:21:59.440Z,12.62
2023-04-05T16:27:05.118Z,12.55
2023-04-05T16:32:10.810Z,12.50
2023-04-05T16:37:16.297Z,12.46
2023-04-05T16:42:23.904Z,12.42
2023-04-05T16:47:29.450Z,12.36
2023-04-05T16:52:35.043Z,12.30
2023-04-05T16:57:40.531Z,12.25
2023-04-05T17:02:46.102Z,12.21
2023-04-05T17:07:51.966Z,12.19
2023-04-05T17:12:59.297Z,12.12
2023-04-05T17:18:04.604Z,12.11
2023-04-05T17:23:10.053Z,12.12
2023-04-05T17:28:15.437Z,12.11
2023-04-05T17:33:20.992Z,12.10
2023-04-05T17:38:28.866Z,12.04
2023-04-05T17:43:34.268Z,12.06
2023-04-05T17:48:39.547Z,12.07
2023-04-05T17:53:44.997Z,12.09
2023-04-05T17:58:50.331Z,12.08
2023-04-05T18:03:55.941Z,12.06
2023-04-05T18:09:02.090Z,12.07
2023-04-05T18:14:08.540Z,12.06
2023-04-05T18:19:14.333Z,12.05
2023-04-05T18:24:20.857Z,12.01
2023-04-05T18:29:29.779Z,12.02
2023-04-05T18:34:36.190Z,12.01
2023-04-05T18:39:41.525Z,11.98
2023-04-05T18:44:47.079Z,11.93
2023-04-05T18:49:53.518Z,11.93
2023-04-05T18:55:00.164Z,11.93
2023-04-05T19:00:06.787Z,11.90
2023-04-05T19:05:12.614Z,11.91
2023-04-05T19:10:18.912Z,11.89
2023-04-05T19:15:24.381Z,11.90
2023-04-05T19:20:29.248Z,11.89
2023-04-05T19:25:34.537Z,11.87
2023-04-05T19:30:42.971Z,11.82
2023-04-05T19:35:48.189Z,11.81
2023-04-05T19:40:53.693Z,11.75
2023-04-05T19:46:00.806Z,11.66
2023-04-05T19:51:08.620Z,11.63
2023-04-05T19:56:33.597Z,11.76
2023-04-05T20:01:42.255Z,11.78
2023-04-05T20:06:57.915Z,11.79
2023-04-05T20:12:05.815Z,11.79
2023-04-05T20:17:16.038Z,11.73
2023-04-05T20:22:22.653Z,11.73
2023-04-05T20:27:29.527Z,11.71
2023-04-05T20:32:35.023Z,11.67
2023-04-05T20:37:41.043Z,11.69
2023-04-05T20:42:48.266Z,11.70
2023-04-05T20:47:54.518Z,11.71
2023-04-05T20:53:00.124Z,11.72
2023-04-05T20:58:06.199Z,11.69
2023-04-05T21:03:11.653Z,11.70
2023-04-05T21:08:17.577Z,11.72
2023-04-05T21:13:27.222Z,11.70
2023-04-05T21:18:32.370Z,11.66
2023-04-05T21:23:37.464Z,11.66
2023-04-05T21:28:42.409Z,11.60
2023-04-05T21:33:47.481Z,11.55
2023-04-05T21:38:52.666Z,11.54
2023-04-05T21:43:58.859Z,11.32
2023-04-05T21:49:03.740Z,11.10
2023-04-05T21:54:09.022Z,10.92
2023-04-05T21:59:14.107Z,10.76
2023-04-05T22:04:18.950Z,10.81
2023-04-05T22:09:24.106Z,10.79
2023-04-05T22:14:29.928Z,10.75
2023-04-05T22:19:35.867Z,10.78
2023-04-05T22:24:40.722Z,10.80
2023-04-05T22:29:45.576Z,10.87
2023-04-05T22:34:50.537Z,10.87
2023-04-05T22:39:55.392Z,10.94
2023-04-05T22:45:00.171Z,11.01
2023-04-05T22:50:05.119Z,11.13
2023-04-05T22:55:10.767Z,11.22
2023-04-05T23:00:16.798Z,11.21
2023-04-05T23:05:21.796Z,11.20
2023-04-05T23:10:26.648Z,11.15
2023-04-05T23:15:32.214Z,11.09
2023-04-05T23:20:37.493Z,11.12
2023-04-05T23:25:42.667Z,11.18
2023-04-05T23:30:47.534Z,11.24
2023-04-05T23:35:52.815Z,11.31
2023-04-05T23:40:58.469Z,11.33
2023-04-05T23:46:03.608Z,11.42
2023-04-05T23:51:09.275Z,11.46
2023-04-05T23:56:14.997Z,11.50
